Allen's Hourly Summary for Saturday, May 12, 2018
Hour Temp
(f)
RH
(%)
Solar Rad.
(MJ/m2)
Rainfall
(in)
Wind
(mph)
5/12/2018 12:00 AM 74 57 0 0 3.48
5/12/2018 1:00 AM 72 62 0 0 3.74
5/12/2018 2:00 AM 72 68 0 0 4.11
5/12/2018 3:00 AM 71 69 0 0 4.72
5/12/2018 4:00 AM 71 73 0 0 4.66
5/12/2018 5:00 AM 71 78 0 0 4.42
5/12/2018 6:00 AM 70 78 0 0 3.12
5/12/2018 7:00 AM 70 81 0.03 0 3.12
5/12/2018 8:00 AM 71 79 0.35 0 2.7
5/12/2018 9:00 AM 72 75 0.54 0 3.01
5/12/2018 10:00 AM 75 63 1.44 0 3.11
5/12/2018 11:00 AM 78 59 2.3 0 4.18
5/12/2018 12:00 PM 80 50 2.48 0 3.88
5/12/2018 1:00 PM 83 46 3.36 0 3.89
5/12/2018 2:00 PM 83 43 2.8 0 5.66
5/12/2018 3:00 PM 84 42 2.73 0 5.35
5/12/2018 4:00 PM 85 39 2.77 0 5.27
5/12/2018 5:00 PM 85 39 2.16 0 6.49
5/12/2018 6:00 PM 84 42 1.26 0 6.59
5/12/2018 7:00 PM 84 43 0.68 0 6.39
5/12/2018 8:00 PM 82 44 0.11 0 4.36
5/12/2018 9:00 PM 80 50 0.01 0 3.03
5/12/2018 10:00 PM 78 55 0 0 3.2
5/12/2018 11:00 PM 76 60 0 0 2.35
Data Summary 77 58 23.02 0.00 4.20